createdAt,value
2024-01-06T00:00:53.409Z,1.93
2024-01-06T00:03:21.736Z,3.27
2024-01-06T00:05:49.733Z,1.73
2024-01-06T00:08:18.985Z,1.10
2024-01-06T00:10:46.865Z,3.03
2024-01-06T00:13:14.775Z,2.10
2024-01-06T00:15:42.786Z,2.60
2024-01-06T00:18:10.819Z,2.40
2024-01-06T00:20:39.140Z,4.77
2024-01-06T00:23:07.042Z,1.97
2024-01-06T00:25:36.249Z,2.70
2024-01-06T00:28:04.518Z,2.00
2024-01-06T00:30:32.542Z,2.47
2024-01-06T00:33:00.775Z,1.40
2024-01-06T00:35:28.730Z,3.93
2024-01-06T00:37:57.358Z,2.33
2024-01-06T00:40:25.248Z,2.30
2024-01-06T00:42:54.474Z,1.80
2024-01-06T00:45:23.554Z,2.60
2024-01-06T00:47:50.847Z,3.30
2024-01-06T00:50:20.330Z,5.07
2024-01-06T00:52:48.958Z,5.13
2024-01-06T00:55:16.888Z,4.97
2024-01-06T00:57:44.827Z,3.87
2024-01-06T01:00:16.346Z,5.40
2024-01-06T01:02:44.439Z,2.70
2024-01-06T01:05:12.434Z,3.47
2024-01-06T01:07:40.385Z,2.23
2024-01-06T01:10:10.014Z,1.10
2024-01-06T01:12:38.284Z,2.03
2024-01-06T01:15:07.280Z,2.10
2024-01-06T01:17:38.133Z,3.90
2024-01-06T01:20:08.050Z,2.07
2024-01-06T01:22:35.959Z,2.50
2024-01-06T01:25:08.553Z,2.57
2024-01-06T01:27:36.541Z,3.23
2024-01-06T01:30:05.027Z,2.13
2024-01-06T01:32:33.149Z,4.27
2024-01-06T01:35:02.549Z,1.13
2024-01-06T01:37:30.491Z,1.43
2024-01-06T01:39:58.565Z,3.43
2024-01-06T01:42:26.560Z,2.97
2024-01-06T01:44:55.369Z,1.83
2024-01-06T01:47:23.370Z,1.60
2024-01-06T01:49:52.004Z,3.97
2024-01-06T01:52:21.440Z,2.07
2024-01-06T01:54:50.278Z,2.87
2024-01-06T01:57:19.664Z,2.00
2024-01-06T01:59:47.981Z,2.30
2024-01-06T02:02:16.492Z,2.47
2024-01-06T02:04:44.528Z,2.07
2024-01-06T02:07:12.424Z,4.07
2024-01-06T02:09:42.140Z,1.93
2024-01-06T02:12:10.259Z,2.37
2024-01-06T02:14:38.219Z,3.67
2024-01-06T02:17:06.851Z,4.60
2024-01-06T02:19:35.028Z,4.60
2024-01-06T02:22:04.910Z,2.47
2024-01-06T02:24:32.896Z,3.87
2024-01-06T02:27:00.868Z,4.17
2024-01-06T02:29:28.810Z,3.90
2024-01-06T02:31:56.743Z,3.13
2024-01-06T02:34:24.706Z,4.30
2024-01-06T02:36:52.737Z,2.50
2024-01-06T02:39:25.912Z,3.70
2024-01-06T02:41:54.136Z,1.97
2024-01-06T02:44:22.093Z,1.90
2024-01-06T02:46:50.219Z,2.10
2024-01-06T02:49:18.368Z,4.47
2024-01-06T02:51:47.074Z,6.97
2024-01-06T02:54:15.003Z,5.27
2024-01-06T02:56:44.237Z,2.13
2024-01-06T02:59:12.245Z,2.80
2024-01-06T03:01:40.207Z,3.03
2024-01-06T03:04:09.653Z,3.60
2024-01-06T03:06:38.154Z,4.77
2024-01-06T03:09:06.125Z,4.03
2024-01-06T03:11:34.049Z,2.90
2024-01-06T03:14:03.939Z,4.27
2024-01-06T03:16:31.871Z,2.73
2024-01-06T03:18:59.865Z,1.90
2024-01-06T03:21:28.630Z,4.33
2024-01-06T03:23:57.014Z,1.97
2024-01-06T03:26:25.081Z,4.17
2024-01-06T03:28:53.092Z,4.50
2024-01-06T03:31:23.550Z,2.07
2024-01-06T03:33:52.823Z,2.90
2024-01-06T03:36:20.813Z,2.00
2024-01-06T03:38:48.780Z,5.00
2024-01-06T03:41:16.740Z,4.70
2024-01-06T03:43:44.670Z,4.97
2024-01-06T03:46:12.587Z,3.63
2024-01-06T03:48:42.018Z,3.73
2024-01-06T03:51:11.561Z,5.33
2024-01-06T03:53:39.520Z,3.60
2024-01-06T03:56:08.072Z,5.70
2024-01-06T03:58:36.405Z,2.43
2024-01-06T04:01:05.129Z,4.30
2024-01-06T04:03:33.301Z,3.20
2024-01-06T04:06:03.105Z,2.70
2024-01-06T04:08:32.410Z,3.47
2024-01-06T04:11:00.327Z,2.37
2024-01-06T04:13:28.480Z,3.17
2024-01-06T04:15:56.489Z,4.30
2024-01-06T04:18:24.601Z,5.63
2024-01-06T04:20:52.536Z,3.23
2024-01-06T04:23:25.236Z,4.97
2024-01-06T04:25:54.358Z,3.40
2024-01-06T04:28:22.405Z,2.00
2024-01-06T04:30:50.774Z,2.90
2024-01-06T04:33:18.963Z,2.50
2024-01-06T04:35:46.995Z,3.03
2024-01-06T04:38:14.938Z,5.27
2024-01-06T04:40:44.232Z,3.33
2024-01-06T04:43:12.153Z,4.70
2024-01-06T04:45:40.156Z,3.77
2024-01-06T04:48:09.388Z,6.77
2024-01-06T04:50:37.490Z,5.87
2024-01-06T04:53:05.750Z,2.63
2024-01-06T04:55:33.719Z,4.00
2024-01-06T04:58:02.982Z,2.33
2024-01-06T05:00:31.582Z,4.00
2024-01-06T05:02:59.603Z,6.00
2024-01-06T05:05:27.541Z,4.10
2024-01-06T05:07:55.460Z,2.90
2024-01-06T05:10:23.674Z,1.80
2024-01-06T05:12:51.601Z,5.87
2024-01-06T05:15:21.256Z,3.60
2024-01-06T05:17:49.342Z,2.93
2024-01-06T05:20:17.411Z,4.23
2024-01-06T05:22:45.371Z,2.87
2024-01-06T05:25:16.276Z,2.63
2024-01-06T05:27:44.213Z,3.60
2024-01-06T05:30:13.164Z,5.67
2024-01-06T05:32:42.494Z,3.53
2024-01-06T05:35:10.798Z,7.43
2024-01-06T05:37:38.841Z,3.03
2024-01-06T05:40:09.372Z,6.60
2024-01-06T05:42:38.206Z,5.03
2024-01-06T05:45:07.557Z,6.13
2024-01-06T05:47:35.551Z,3.13
2024-01-06T05:50:05.287Z,3.73
2024-01-06T05:52:33.494Z,2.43
2024-01-06T05:55:01.459Z,3.83
2024-01-06T05:57:29.440Z,4.13
2024-01-06T05:59:57.351Z,2.80
2024-01-06T06:02:25.267Z,3.23
2024-01-06T06:04:53.756Z,5.80
2024-01-06T06:07:23.098Z,3.43
2024-01-06T06:09:51.157Z,4.03
2024-01-06T06:12:19.138Z,4.07
2024-01-06T06:14:47.175Z,4.27
2024-01-06T06:17:15.152Z,4.77
2024-01-06T06:19:43.151Z,4.07
2024-01-06T06:22:11.136Z,4.60
2024-01-06T06:24:40.399Z,5.20
2024-01-06T06:27:08.318Z,5.57
2024-01-06T06:29:36.433Z,6.33
2024-01-06T06:32:05.092Z,4.80
2024-01-06T06:34:33.127Z,5.40
2024-01-06T06:37:01.156Z,7.17
2024-01-06T06:39:29.600Z,7.97
2024-01-06T06:41:58.901Z,4.47
2024-01-06T06:44:26.812Z,6.57
2024-01-06T06:46:54.829Z,6.73
2024-01-06T06:49:22.781Z,8.87
2024-01-06T06:51:51.317Z,8.43
2024-01-06T06:54:20.332Z,9.80
2024-01-06T06:56:48.251Z,12.07
2024-01-06T06:59:17.700Z,15.73
2024-01-06T07:01:45.698Z,12.27
2024-01-06T07:04:13.677Z,13.67
2024-01-06T07:06:41.649Z,14.03
2024-01-06T07:09:09.599Z,15.73
2024-01-06T07:11:37.674Z,16.90
2024-01-06T07:14:05.616Z,16.37
2024-01-06T07:16:34.988Z,15.77
2024-01-06T07:19:04.972Z,18.40
2024-01-06T07:21:33.084Z,17.93
2024-01-06T07:24:02.331Z,18.23
2024-01-06T07:26:30.308Z,20.23
2024-01-06T07:28:58.871Z,19.27
2024-01-06T07:31:26.828Z,19.57
2024-01-06T07:33:56.243Z,20.53
2024-01-06T07:36:24.635Z,21.53
2024-01-06T07:38:55.330Z,21.40
2024-01-06T07:41:33.077Z,20.03
2024-01-06T07:44:02.083Z,22.00
2024-01-06T07:46:30.945Z,28.53
2024-01-06T07:49:00.486Z,24.60
2024-01-06T07:51:28.906Z,24.13
2024-01-06T07:53:56.834Z,31.90
2024-01-06T07:56:27.935Z,24.27
2024-01-06T07:58:55.881Z,24.63
2024-01-06T08:01:24.134Z,25.87
2024-01-06T08:03:52.392Z,32.93
2024-01-06T08:06:23.114Z,56.97
2024-01-06T08:08:51.122Z,100.20
2024-01-06T08:11:19.039Z,244.50
2024-01-06T08:13:46.961Z,123.77
2024-01-06T08:16:15.066Z,154.13
2024-01-06T08:18:43.790Z,302.63
2024-01-06T08:21:12.055Z,137.70
2024-01-06T08:23:41.346Z,283.60
2024-01-06T08:26:13.270Z,107.37
2024-01-06T08:28:41.622Z,95.60
2024-01-06T08:31:09.671Z,222.67
2024-01-06T08:33:37.875Z,260.93
2024-01-06T08:36:07.727Z,176.87
2024-01-06T08:38:35.694Z,313.50
2024-01-06T08:41:05.931Z,89.50
2024-01-06T08:43:33.956Z,186.77
2024-01-06T08:46:03.202Z,132.03
2024-01-06T08:48:35.098Z,247.63
2024-01-06T08:51:04.045Z,222.90
2024-01-06T08:53:32.473Z,89.23
2024-01-06T08:56:00.542Z,275.03
2024-01-06T08:58:29.796Z,100.97
2024-01-06T09:00:57.788Z,201.70
2024-01-06T09:03:27.391Z,65.03
2024-01-06T09:05:58.645Z,91.87
2024-01-06T09:08:26.547Z,94.00
2024-01-06T09:10:58.090Z,114.00
2024-01-06T09:13:26.559Z,258.63
2024-01-06T09:15:57.108Z,86.20
2024-01-06T09:18:27.824Z,106.20
2024-01-06T09:20:57.141Z,116.10
2024-01-06T09:23:25.637Z,99.23
2024-01-06T09:25:53.997Z,255.70
2024-01-06T09:28:22.905Z,117.83
2024-01-06T09:30:53.624Z,93.13
2024-01-06T09:33:23.152Z,101.90
2024-01-06T09:35:51.687Z,254.33
2024-01-06T09:38:20.813Z,231.33
2024-01-06T09:40:50.938Z,210.10
2024-01-06T09:43:18.932Z,78.93
2024-01-06T09:45:58.384Z,320.57
2024-01-06T09:48:32.842Z,298.27
2024-01-06T09:51:05.965Z,213.20
2024-01-06T09:53:42.742Z,384.90
2024-01-06T09:56:13.149Z,185.97
2024-01-06T09:58:42.368Z,157.17
2024-01-06T10:01:11.590Z,257.53
2024-01-06T10:03:41.275Z,273.40
2024-01-06T10:06:10.907Z,398.33
2024-01-06T10:08:41.629Z,341.03
2024-01-06T10:11:10.646Z,330.63
2024-01-06T10:13:39.636Z,375.20
2024-01-06T10:16:08.289Z,234.70
2024-01-06T10:18:36.887Z,235.00
2024-01-06T10:21:07.972Z,142.40
2024-01-06T10:23:37.681Z,186.43
2024-01-06T10:26:06.260Z,256.87
2024-01-06T10:28:34.605Z,135.90
2024-01-06T10:31:03.194Z,132.70
2024-01-06T10:33:34.716Z,192.27
2024-01-06T10:36:03.945Z,312.37
2024-01-06T10:38:35.492Z,141.17
2024-01-06T10:41:08.445Z,115.33
2024-01-06T10:43:41.530Z,99.07
2024-01-06T10:46:11.744Z,76.67
2024-01-06T10:48:44.739Z,169.50
2024-01-06T10:51:16.222Z,91.13
2024-01-06T10:53:45.860Z,40.60
2024-01-06T10:56:13.967Z,52.40
2024-01-06T10:58:50.629Z,46.47
2024-01-06T11:01:26.216Z,33.90
2024-01-06T11:03:57.567Z,27.37
2024-01-06T11:06:26.708Z,27.63
2024-01-06T11:09:18.400Z,41.03
2024-01-06T11:11:47.006Z,47.27
2024-01-06T11:14:24.185Z,31.77
2024-01-06T11:16:53.825Z,71.00
2024-01-06T11:19:47.680Z,66.03
2024-01-06T11:22:32.539Z,40.30
2024-01-06T11:25:09.186Z,132.13
2024-01-06T11:27:38.532Z,204.93
2024-01-06T11:30:08.815Z,249.87
2024-01-06T11:32:39.819Z,38.70
2024-01-06T11:35:10.905Z,135.13
2024-01-06T11:37:53.920Z,66.50
2024-01-06T11:40:34.483Z,150.17
2024-01-06T11:43:06.776Z,126.13
2024-01-06T11:45:36.224Z,144.40
2024-01-06T11:48:07.287Z,105.70
2024-01-06T11:50:39.256Z,192.50
2024-01-06T11:53:11.036Z,273.23
2024-01-06T11:55:43.687Z,79.53
2024-01-06T11:58:11.837Z,156.03
2024-01-06T12:00:41.586Z,120.97
2024-01-06T12:03:11.103Z,73.73
2024-01-06T12:05:39.230Z,1055.40
2024-01-06T12:08:09.292Z,61.57
2024-01-06T12:10:37.966Z,55.90
2024-01-06T12:13:10.803Z,102.30
2024-01-06T12:15:40.462Z,239.23
2024-01-06T12:18:09.472Z,195.00
2024-01-06T12:20:37.805Z,131.60
2024-01-06T12:23:07.283Z,157.00
2024-01-06T12:25:40.398Z,201.27
2024-01-06T12:28:10.587Z,201.50
2024-01-06T12:30:41.006Z,165.87
2024-01-06T12:33:09.432Z,142.20
2024-01-06T12:35:37.595Z,158.50
2024-01-06T12:38:08.452Z,110.00
2024-01-06T12:40:38.399Z,88.37
2024-01-06T12:43:08.059Z,147.47
2024-01-06T12:45:37.560Z,191.27
2024-01-06T12:48:06.752Z,128.40
2024-01-06T12:50:34.757Z,123.50
2024-01-06T12:53:02.721Z,221.80
2024-01-06T12:55:30.702Z,128.17
2024-01-06T12:58:02.161Z,133.73
2024-01-06T13:00:31.640Z,177.30
2024-01-06T13:03:02.093Z,228.70
2024-01-06T13:05:30.101Z,276.87
2024-01-06T13:07:58.631Z,225.37
2024-01-06T13:10:26.884Z,122.93
2024-01-06T13:12:55.085Z,65.07
2024-01-06T13:15:23.231Z,154.17
2024-01-06T13:17:52.770Z,122.30
2024-01-06T13:20:22.314Z,231.77
2024-01-06T13:22:52.335Z,254.40
2024-01-06T13:25:21.178Z,357.23
2024-01-06T13:27:49.939Z,261.03
2024-01-06T13:30:19.329Z,308.30
2024-01-06T13:32:49.837Z,130.57
2024-01-06T13:35:17.848Z,318.00
2024-01-06T13:37:49.282Z,255.80
2024-01-06T13:40:20.609Z,412.77
2024-01-06T13:42:48.791Z,344.73
2024-01-06T13:45:17.375Z,307.43
2024-01-06T13:47:46.447Z,111.03
2024-01-06T13:50:17.288Z,269.03
2024-01-06T13:52:47.224Z,348.67
2024-01-06T13:55:15.215Z,329.80
2024-01-06T13:57:43.806Z,273.67
2024-01-06T14:00:18.567Z,272.37
2024-01-06T14:02:48.890Z,219.97
2024-01-06T14:05:18.127Z,295.87
2024-01-06T14:07:50.367Z,160.83
2024-01-06T14:10:18.616Z,89.47
2024-01-06T14:12:46.704Z,128.40
2024-01-06T14:15:14.847Z,70.10
2024-01-06T14:17:45.075Z,240.80
2024-01-06T14:20:13.925Z,260.83
2024-01-06T14:22:42.023Z,154.60
2024-01-06T14:25:11.677Z,178.73
2024-01-06T14:27:39.892Z,202.05
2024-01-06T14:30:10.899Z,250.57
2024-01-06T14:32:39.677Z,192.90
2024-01-06T14:35:12.193Z,332.90
2024-01-06T14:37:40.268Z,255.97
2024-01-06T14:40:13.302Z,278.67
2024-01-06T14:42:41.333Z,278.27
2024-01-06T14:45:10.823Z,210.88
2024-01-06T14:47:38.738Z,254.27
2024-01-06T14:50:08.914Z,194.30
2024-01-06T14:52:36.840Z,238.63
2024-01-06T14:55:06.299Z,264.70
2024-01-06T14:57:35.725Z,194.67
2024-01-06T15:00:03.929Z,194.43
2024-01-06T15:02:31.935Z,179.83
2024-01-06T15:05:01.162Z,243.53
2024-01-06T15:07:29.324Z,304.40
2024-01-06T15:09:58.762Z,242.00
2024-01-06T15:12:27.879Z,224.70
2024-01-06T15:14:57.325Z,244.20
2024-01-06T15:17:25.293Z,223.68
2024-01-06T15:19:54.477Z,324.17
2024-01-06T15:22:23.738Z,286.85
2024-01-06T15:24:57.558Z,414.63
2024-01-06T15:27:26.972Z,299.73
2024-01-06T15:29:55.144Z,273.15
2024-01-06T15:32:24.845Z,315.35
2024-01-06T15:34:53.273Z,315.48
2024-01-06T15:37:21.665Z,353.52
2024-01-06T15:39:50.162Z,378.42
2024-01-06T15:42:18.415Z,332.63
2024-01-06T15:44:45.513Z,368.80
2024-01-06T15:47:14.422Z,281.10
2024-01-06T15:49:44.179Z,373.77
2024-01-06T15:52:12.464Z,334.25
2024-01-06T15:54:40.551Z,401.25
2024-01-06T15:57:10.159Z,324.25
2024-01-06T15:59:38.116Z,254.25
2024-01-06T16:02:06.704Z,264.98
2024-01-06T16:04:34.751Z,220.30
2024-01-06T16:07:06.774Z,285.48
2024-01-06T16:09:34.876Z,401.88
2024-01-06T16:12:05.027Z,275.67
2024-01-06T16:14:35.798Z,353.17
2024-01-06T16:17:04.868Z,197.40
2024-01-06T16:19:32.978Z,259.48
2024-01-06T16:22:11.053Z,253.88
2024-01-06T16:24:46.600Z,347.15
2024-01-06T16:27:14.781Z,303.33
2024-01-06T16:29:42.797Z,286.20
2024-01-06T16:32:10.883Z,446.00
2024-01-06T16:34:40.050Z,303.13
2024-01-06T16:37:08.206Z,329.15
2024-01-06T16:39:36.441Z,344.00
2024-01-06T16:42:07.261Z,413.55
2024-01-06T16:44:35.418Z,379.58
2024-01-06T16:47:03.523Z,301.73
2024-01-06T16:49:33.283Z,264.52
2024-01-06T16:52:01.505Z,401.38
2024-01-06T16:54:29.550Z,240.43
2024-01-06T16:57:00.874Z,285.00
2024-01-06T16:59:30.268Z,220.02
2024-01-06T17:01:59.869Z,190.85
2024-01-06T17:04:28.210Z,157.15
2024-01-06T17:06:58.596Z,304.13
2024-01-06T17:09:26.838Z,350.27
2024-01-06T17:11:54.908Z,191.52
2024-01-06T17:14:23.528Z,163.77
2024-01-06T17:16:52.819Z,101.90
2024-01-06T17:19:20.817Z,99.22
2024-01-06T17:21:49.022Z,117.70
2024-01-06T17:24:17.110Z,77.97
2024-01-06T17:26:45.098Z,79.03
2024-01-06T17:29:13.794Z,92.55
2024-01-06T17:31:41.775Z,101.88
2024-01-06T17:34:11.523Z,113.05
2024-01-06T17:36:39.600Z,95.18
2024-01-06T17:39:08.083Z,106.75
2024-01-06T17:41:45.793Z,92.60
2024-01-06T17:44:21.376Z,226.55
2024-01-06T17:46:49.414Z,204.20
2024-01-06T17:49:18.878Z,302.38
2024-01-06T17:51:46.969Z,101.78
2024-01-06T17:54:15.166Z,94.82
2024-01-06T17:56:43.506Z,162.60
2024-01-06T17:59:11.644Z,102.45
2024-01-06T18:01:39.653Z,99.05
2024-01-06T18:04:07.689Z,105.22
2024-01-06T18:06:37.340Z,108.18
2024-01-06T18:09:06.480Z,111.72
2024-01-06T18:11:33.463Z,187.60
2024-01-06T18:14:01.723Z,47.17
2024-01-06T18:16:29.626Z,63.17
2024-01-06T18:18:57.698Z,44.40
2024-01-06T18:21:25.783Z,38.80
2024-01-06T18:23:55.048Z,35.90
2024-01-06T18:26:23.270Z,41.88
2024-01-06T18:28:51.589Z,37.47
2024-01-06T18:31:19.776Z,46.33
2024-01-06T18:33:47.840Z,43.33
2024-01-06T18:36:17.237Z,37.22
2024-01-06T18:38:45.165Z,59.20
2024-01-06T18:41:15.165Z,52.78
2024-01-06T18:43:43.088Z,79.30
2024-01-06T18:46:13.635Z,198.18
2024-01-06T18:48:41.811Z,104.18
2024-01-06T18:51:09.814Z,177.30
2024-01-06T18:53:40.275Z,212.50
2024-01-06T18:56:10.108Z,166.32
2024-01-06T18:58:39.345Z,161.00
2024-01-06T19:01:08.272Z,181.45
2024-01-06T19:03:36.402Z,349.48
2024-01-06T19:06:04.795Z,182.60
2024-01-06T19:08:32.720Z,203.32
2024-01-06T19:11:01.329Z,182.70
2024-01-06T19:13:29.257Z,319.00
2024-01-06T19:15:58.801Z,231.55
2024-01-06T19:18:26.923Z,102.88
2024-01-06T19:20:55.349Z,110.85
2024-01-06T19:23:23.310Z,87.90
2024-01-06T19:25:52.978Z,96.57
2024-01-06T19:28:21.208Z,73.40
2024-01-06T19:30:49.235Z,68.07
2024-01-06T19:33:18.618Z,101.82
2024-01-06T19:35:46.668Z,104.65
2024-01-06T19:38:19.458Z,92.00
2024-01-06T19:40:48.458Z,144.00
2024-01-06T19:43:16.871Z,134.52
2024-01-06T19:45:44.901Z,175.98
2024-01-06T19:48:12.905Z,335.85
2024-01-06T19:50:42.227Z,151.10
2024-01-06T19:53:10.177Z,302.58
2024-01-06T19:55:38.093Z,155.90
2024-01-06T19:58:06.342Z,321.15
2024-01-06T20:00:35.166Z,187.38
2024-01-06T20:03:04.423Z,245.85
2024-01-06T20:05:32.433Z,341.58
2024-01-06T20:08:01.759Z,256.77
2024-01-06T20:10:29.751Z,305.40
2024-01-06T20:12:58.007Z,232.73
2024-01-06T20:15:26.184Z,222.95
2024-01-06T20:17:54.995Z,126.93
2024-01-06T20:20:23.078Z,116.35
2024-01-06T20:22:51.427Z,101.07
2024-01-06T20:25:21.176Z,88.32
2024-01-06T20:27:49.234Z,93.65
2024-01-06T20:30:18.288Z,77.13
2024-01-06T20:32:47.301Z,89.50
2024-01-06T20:35:15.719Z,89.90
2024-01-06T20:37:43.791Z,99.93
2024-01-06T20:40:13.552Z,77.88
2024-01-06T20:42:42.827Z,80.82
2024-01-06T20:45:11.944Z,84.30
2024-01-06T20:47:40.016Z,81.00
2024-01-06T20:50:09.185Z,81.78
2024-01-06T20:52:38.666Z,87.50
2024-01-06T20:55:08.058Z,89.85
2024-01-06T20:57:36.206Z,106.78
2024-01-06T21:00:07.531Z,123.45
2024-01-06T21:02:35.629Z,113.80
2024-01-06T21:05:06.153Z,123.32
2024-01-06T21:07:34.904Z,163.05
2024-01-06T21:10:04.339Z,156.80
2024-01-06T21:12:33.458Z,162.32
2024-01-06T21:15:01.878Z,200.88
2024-01-06T21:17:31.288Z,159.43
2024-01-06T21:20:01.537Z,228.98
2024-01-06T21:22:31.562Z,205.90
2024-01-06T21:24:59.874Z,275.83
2024-01-06T21:27:28.543Z,280.05
2024-01-06T21:29:56.472Z,310.75
2024-01-06T21:32:25.465Z,245.20
2024-01-06T21:34:54.846Z,299.65
2024-01-06T21:37:22.811Z,367.42
2024-01-06T21:39:50.778Z,292.75
2024-01-06T21:42:18.777Z,249.73
2024-01-06T21:44:46.780Z,275.77
2024-01-06T21:47:14.810Z,385.30
2024-01-06T21:49:43.100Z,368.30
2024-01-06T21:52:13.390Z,290.33
2024-01-06T21:54:41.363Z,411.45
2024-01-06T21:57:09.317Z,404.67
2024-01-06T21:59:37.422Z,462.23
2024-01-06T22:02:05.592Z,304.52
2024-01-06T22:04:33.813Z,298.67
2024-01-06T22:07:02.210Z,313.48
2024-01-06T22:09:31.909Z,337.75
2024-01-06T22:11:59.841Z,379.90
2024-01-06T22:14:27.808Z,228.25
2024-01-06T22:16:55.873Z,263.38
2024-01-06T22:19:23.875Z,303.15
2024-01-06T22:21:51.981Z,351.92
2024-01-06T22:24:19.936Z,313.73
2024-01-06T22:26:49.504Z,273.77
2024-01-06T22:29:17.449Z,210.25
2024-01-06T22:31:46.084Z,228.73
2024-01-06T22:34:14.649Z,278.30
2024-01-06T22:36:42.964Z,340.90
2024-01-06T22:39:11.632Z,304.95
2024-01-06T22:41:39.942Z,196.82
2024-01-06T22:44:09.160Z,175.77
2024-01-06T22:46:37.203Z,175.90
2024-01-06T22:49:05.569Z,147.18
2024-01-06T22:51:34.183Z,158.98
2024-01-06T22:54:03.075Z,149.30
2024-01-06T22:56:31.131Z,153.35
2024-01-06T22:59:00.382Z,98.32
2024-01-06T23:01:30.610Z,106.03
2024-01-06T23:03:58.713Z,91.55
2024-01-06T23:06:28.986Z,115.63
2024-01-06T23:08:57.120Z,117.78
2024-01-06T23:11:25.170Z,120.32
2024-01-06T23:13:53.412Z,100.18
2024-01-06T23:16:21.911Z,91.57
2024-01-06T23:18:51.715Z,88.55
2024-01-06T23:21:19.706Z,102.43
2024-01-06T23:23:47.910Z,76.43
2024-01-06T23:26:16.130Z,86.05
2024-01-06T23:28:44.037Z,75.72
2024-01-06T23:31:12.188Z,72.40
2024-01-06T23:33:42.052Z,71.57
2024-01-06T23:36:12.464Z,78.22
2024-01-06T23:38:40.385Z,79.80
2024-01-06T23:41:08.371Z,58.92
2024-01-06T23:43:36.264Z,69.55
2024-01-06T23:46:05.414Z,65.20
2024-01-06T23:48:33.795Z,63.15
2024-01-06T23:51:02.495Z,65.43
2024-01-06T23:53:32.255Z,62.05
2024-01-06T23:56:00.631Z,60.50
2024-01-06T23:58:28.590Z,60.13
